Terminal Aerodrome Forecast
Issued by NWS

Home | Current Version | Previous Version | Graphics & Text | Print | Product List | Glossary On
Versions: 1 2 3 4 5 6 7 8 9 10 11 12 13 14 15
000
FTUS45 KGGW 151700
TAFOLF
TAF
KOLF 151733Z 1518/1618 07008KT P6SM BKN200
     FM152000 25008KT P6SM BKN120
     FM160000 04012KT P6SM VCSH OVC040 PROB30 1603/1606 01012KT P6SM
      -SHRA OVC035
     FM161000 04010KT P6SM OVC040=

USA.gov is the U.S. government's official web portal to all federal, state and local government web resources and services.